Time;durP1;ratioP1;P1;durP2;ratioP2;P2;SDS_P1;SDS_P2;PMS_P1;PMS_P2;Temp;Humidity;BMP_temperature;BMP_pressure;BME280_temperature;BME280_humidity;BME280_pressure;Samples;Min_cycle;Max_cycle;Signal;HPM_P1;HPM_P2
2022/09/08 00:00:46;;;;;;;17.75;10.63;;;18.60;99.90;;;;;;5055582;28;20041;-70
2022/09/08 00:03:16;;;;;;;19.80;10.85;;;18.60;99.90;;;;;;5055163;28;20125;-71
2022/09/08 00:05:47;;;;;;;15.30;10.32;;;18.60;99.90;;;;;;5055779;28;20488;-70
2022/09/08 00:08:20;;;;;;;16.85;9.60;;;18.60;99.90;;;;;;5068381;28;20626;-70
2022/09/08 00:10:50;;;;;;;18.02;8.70;;;18.60;99.90;;;;;;5075684;28;20052;-70
2022/09/08 00:13:17;;;;;;;12.48;8.32;;;18.60;99.90;;;;;;5075362;28;20048;-70
2022/09/08 00:15:45;;;;;;;10.48;6.25;;;18.70;99.90;;;;;;5075352;28;20049;-71
2022/09/08 00:18:13;;;;;;;9.00;5.50;;;18.60;99.90;;;;;;5075278;28;20040;-69
2022/09/08 00:20:41;;;;;;;11.05;6.10;;;18.60;99.90;;;;;;5056944;28;20049;-70
2022/09/08 00:23:08;;;;;;;13.65;7.28;;;18.60;99.90;;;;;;5054932;28;20045;-69
2022/09/08 00:25:37;;;;;;;11.50;7.32;;;18.60;99.90;;;;;;5055201;28;20095;-69
2022/09/08 00:28:05;;;;;;;13.65;7.75;;;18.60;99.90;;;;;;5037168;28;20124;-69
2022/09/08 00:30:32;;;;;;;13.55;8.25;;;18.60;99.90;;;;;;5057192;28;20605;-69
2022/09/08 00:32:59;;;;;;;13.50;7.82;;;18.50;99.90;;;;;;5056754;28;20123;-70
2022/09/08 00:35:27;;;;;;;15.40;8.13;;;18.60;99.90;;;;;;5057184;28;20055;-70
2022/09/08 00:37:54;;;;;;;17.42;8.40;;;18.50;99.90;;;;;;5068827;28;20079;-69
2022/09/08 00:40:23;;;;;;;14.60;8.80;;;18.50;99.90;;;;;;5054804;28;20480;-70
2022/09/08 00:43:01;;;;;;;12.45;8.40;;;18.50;99.90;;;;;;5060092;28;20044;-70
2022/09/08 00:45:33;;;;;;;15.18;8.25;;;18.40;99.90;;;;;;5057478;28;20373;-70
2022/09/08 00:48:05;;;;;;;16.83;8.60;;;18.40;99.90;;;;;;5068573;28;20041;-70
2022/09/08 00:50:33;;;;;;;11.82;8.80;;;18.40;99.90;;;;;;5054673;28;20083;-69
2022/09/08 00:53:05;;;;;;;14.88;9.02;;;18.50;99.90;;;;;;5057384;28;20052;-70
2022/09/08 00:55:35;;;;;;;16.08;9.48;;;18.50;99.90;;;;;;5074358;28;20499;-70
2022/09/08 00:58:04;;;;;;;14.65;9.20;;;18.50;99.90;;;;;;5074101;28;20553;-70
2022/09/08 01:00:32;;;;;;;13.07;9.10;;;18.50;99.90;;;;;;5082571;28;20029;-70
2022/09/08 01:02:59;;;;;;;12.25;9.38;;;18.40;99.90;;;;;;5114612;28;20127;-71
2022/09/08 01:05:31;;;;;;;13.45;9.70;;;18.50;99.90;;;;;;5096637;28;20055;-70
2022/09/08 01:14:06;;;;;;;13.10;10.20;;;18.40;99.90;;;;;;5074975;28;20051;-71
2022/09/08 01:16:41;;;;;;;16.08;10.10;;;18.30;99.90;;;;;;5094658;28;20145;-70
2022/09/08 01:19:15;;;;;;;18.77;9.80;;;18.30;99.90;;;;;;5094630;28;20032;-70
2022/09/08 01:21:58;;;;;;;15.35;9.60;;;18.30;99.90;;;;;;5094400;28;20043;-70
2022/09/08 01:24:42;;;;;;;13.00;10.20;;;18.30;99.90;;;;;;5094643;28;20478;-70
2022/09/08 01:27:21;;;;;;;14.52;10.38;;;18.30;99.90;;;;;;5094845;28;20036;-69
2022/09/08 01:29:50;;;;;;;16.48;10.73;;;18.20;99.90;;;;;;5076228;28;20131;-70
2022/09/08 01:32:19;;;;;;;15.35;10.38;;;18.20;99.90;;;;;;5097983;28;20069;-68
2022/09/08 01:34:46;;;;;;;46.92;32.90;;;18.10;99.90;;;;;;5096116;28;20051;-70
2022/09/08 01:37:14;;;;;;;19.67;10.20;;;18.10;99.90;;;;;;5114878;28;20488;-69
2022/09/08 01:39:41;;;;;;;17.30;10.23;;;18.10;99.90;;;;;;5114680;28;20039;-70
2022/09/08 01:42:09;;;;;;;27.35;19.15;;;18.10;99.90;;;;;;5111741;28;20483;-71
2022/09/08 01:44:37;;;;;;;13.88;10.55;;;18.10;99.90;;;;;;5076022;28;20092;-70
2022/09/08 01:47:05;;;;;;;14.90;10.82;;;18.00;99.90;;;;;;5094377;28;20044;-69
2022/09/08 01:49:32;;;;;;;17.05;9.77;;;17.90;99.90;;;;;;5093834;28;20047;-70
2022/09/08 01:51:59;;;;;;;14.48;10.05;;;17.80;99.90;;;;;;5077657;28;20127;-70
2022/09/08 01:54:28;;;;;;;19.30;9.57;;;17.80;99.90;;;;;;5114293;28;20475;-70
2022/09/08 01:56:56;;;;;;;18.30;10.07;;;17.80;99.90;;;;;;5119642;28;20040;-69
2022/09/08 01:59:23;;;;;;;17.30;10.23;;;17.80;99.90;;;;;;5118964;28;20063;-70
2022/09/08 02:01:52;;;;;;;15.68;10.85;;;17.70;99.90;;;;;;5117365;28;20048;-70
2022/09/08 02:04:19;;;;;;;15.63;11.38;;;17.80;99.90;;;;;;5094596;28;20087;-70
2022/09/08 02:06:47;;;;;;;14.40;10.68;;;17.80;99.90;;;;;;5094843;28;20072;-70
2022/09/08 02:09:14;;;;;;;18.48;11.88;;;17.80;99.90;;;;;;5094530;28;20067;-70
2022/09/08 02:11:41;;;;;;;19.02;11.55;;;17.80;99.90;;;;;;5077064;28;20067;-70
2022/09/08 02:14:08;;;;;;;15.02;10.98;;;17.70;99.90;;;;;;5093755;28;20083;-70
2022/09/08 02:16:36;;;;;;;13.45;11.10;;;17.70;99.90;;;;;;5094376;28;20053;-70
2022/09/08 02:19:04;;;;;;;17.55;11.52;;;17.60;99.90;;;;;;5093707;28;20040;-70
2022/09/08 02:21:31;;;;;;;15.98;11.80;;;17.60;99.90;;;;;;5095426;28;20438;-70
2022/09/08 02:23:59;;;;;;;17.38;10.93;;;17.60;99.90;;;;;;5093268;28;20127;-69
2022/09/08 02:26:29;;;;;;;13.57;11.20;;;17.60;99.90;;;;;;5093345;28;20052;-69
2022/09/08 02:28:57;;;;;;;20.27;10.15;;;17.60;99.90;;;;;;5094365;28;20036;-71
2022/09/08 02:31:26;;;;;;;19.70;10.90;;;17.60;99.90;;;;;;5113371;28;20459;-70
2022/09/08 02:33:54;;;;;;;14.57;10.52;;;17.60;99.90;;;;;;5095257;28;20040;-70
2022/09/08 02:36:22;;;;;;;15.98;11.05;;;17.60;99.90;;;;;;5095380;28;20105;-70
2022/09/08 02:38:51;;;;;;;16.52;10.55;;;17.70;99.90;;;;;;5111009;28;20043;-70
2022/09/08 02:41:18;;;;;;;14.23;10.10;;;17.70;99.90;;;;;;5075166;28;20139;-70
2022/09/08 02:43:45;;;;;;;15.32;10.82;;;17.60;99.90;;;;;;5106601;28;20074;-70
2022/09/08 02:46:13;;;;;;;16.27;9.98;;;17.60;99.90;;;;;;5095194;28;20047;-70
2022/09/08 02:48:41;;;;;;;14.68;10.00;;;17.50;99.90;;;;;;5112523;28;20405;-70
2022/09/08 02:51:10;;;;;;;16.33;10.18;;;17.50;99.90;;;;;;5100069;28;20036;-70
2022/09/08 02:53:40;;;;;;;14.85;10.25;;;17.40;99.90;;;;;;5112964;28;20052;-70
2022/09/08 02:56:08;;;;;;;13.23;10.18;;;17.50;99.90;;;;;;5113299;28;20067;-70
2022/09/08 02:58:36;;;;;;;12.68;10.77;;;17.40;99.90;;;;;;5113269;28;20067;-71
2022/09/08 03:01:04;;;;;;;13.93;11.43;;;17.30;99.90;;;;;;5074979;28;20071;-70
2022/09/08 03:03:31;;;;;;;16.02;12.60;;;17.30;99.90;;;;;;5074583;28;21624;-71
2022/09/08 03:05:59;;;;;;;22.63;12.95;;;17.30;99.90;;;;;;5106102;28;20095;-70
2022/09/08 03:08:26;;;;;;;18.85;13.05;;;17.30;99.90;;;;;;5112717;28;20599;-70
2022/09/08 03:10:55;;;;;;;17.33;11.35;;;17.30;99.90;;;;;;5108988;28;20122;-70
2022/09/08 03:13:22;;;;;;;15.82;11.48;;;17.30;99.90;;;;;;5094843;28;20482;-70
2022/09/08 03:15:50;;;;;;;14.40;10.98;;;17.30;99.90;;;;;;5108560;28;20044;-70
2022/09/08 03:18:17;;;;;;;18.42;10.80;;;17.30;99.90;;;;;;5110692;28;20507;-69
2022/09/08 03:20:45;;;;;;;14.25;11.05;;;17.20;99.90;;;;;;5114744;28;20063;-70
2022/09/08 03:23:17;;;;;;;14.48;10.82;;;17.20;99.90;;;;;;5104657;28;20127;-70
2022/09/08 03:25:44;;;;;;;16.35;11.40;;;17.20;99.90;;;;;;5111017;28;20154;-70
2022/09/08 03:28:20;;;;;;;15.52;10.85;;;17.20;99.90;;;;;;5110002;28;20044;-70
2022/09/08 03:30:48;;;;;;;18.08;10.15;;;17.10;99.90;;;;;;5106851;28;20043;-70
2022/09/08 03:33:15;;;;;;;16.80;11.15;;;17.10;99.90;;;;;;5095872;28;20055;-70
2022/09/08 03:35:43;;;;;;;21.27;13.07;;;17.10;99.90;;;;;;5114503;28;20036;-73
2022/09/08 03:38:10;;;;;;;16.30;12.70;;;17.10;99.90;;;;;;5095976;28;20541;-72
2022/09/08 03:40:41;;;;;;;19.52;14.05;;;17.10;99.90;;;;;;5117079;28;20039;-71
2022/09/08 03:43:09;;;;;;;19.98;14.98;;;17.10;99.90;;;;;;5116176;28;20143;-72
2022/09/08 03:45:42;;;;;;;21.77;15.88;;;17.10;99.90;;;;;;5098415;28;20047;-72
2022/09/08 03:48:09;;;;;;;21.38;14.10;;;17.00;99.90;;;;;;5109274;28;20043;-69
2022/09/08 03:50:36;;;;;;;19.95;13.25;;;17.00;99.90;;;;;;5100929;27;20053;-70
2022/09/08 03:53:03;;;;;;;23.00;14.27;;;17.00;99.90;;;;;;5115640;28;20051;-71
2022/09/08 03:55:31;;;;;;;24.15;13.35;;;17.00;99.90;;;;;;5112530;28;20123;-70
2022/09/08 03:57:59;;;;;;;15.93;13.32;;;17.00;99.90;;;;;;5116232;28;20092;-70
2022/09/08 04:00:27;;;;;;;22.77;14.68;;;17.00;99.90;;;;;;5116153;28;20039;-69
2022/09/08 04:02:56;;;;;;;21.40;16.00;;;16.90;99.90;;;;;;5097486;28;20046;-69
2022/09/08 04:05:23;;;;;;;28.50;15.18;;;16.90;99.90;;;;;;5113539;28;20371;-70
2022/09/08 04:07:51;;;;;;;21.80;14.93;;;16.80;99.90;;;;;;5116073;28;20127;-70
2022/09/08 04:10:19;;;;;;;18.50;13.70;;;16.80;99.90;;;;;;5116002;28;20036;-70
2022/09/08 04:12:46;;;;;;;20.08;13.60;;;16.80;99.90;;;;;;5115685;28;20039;-70
2022/09/08 04:15:14;;;;;;;23.55;13.80;;;16.80;99.90;;;;;;5097590;28;20074;-70
2022/09/08 04:17:42;;;;;;;20.35;12.63;;;16.70;99.90;;;;;;5115500;28;20530;-70
2022/09/08 04:20:13;;;;;;;17.73;12.15;;;16.70;99.90;;;;;;5115558;28;20035;-71
2022/09/08 04:22:40;;;;;;;16.58;12.07;;;16.70;99.90;;;;;;5115422;28;20067;-72
2022/09/08 04:25:08;;;;;;;19.60;12.88;;;16.70;99.90;;;;;;5097538;28;20036;-71
2022/09/08 04:27:36;;;;;;;24.70;14.23;;;16.70;99.90;;;;;;5097320;28;20047;-71
2022/09/08 04:30:03;;;;;;;24.40;13.23;;;16.70;99.90;;;;;;5115504;28;20501;-71
2022/09/08 04:32:31;;;;;;;14.95;11.85;;;16.70;99.90;;;;;;5114502;28;20077;-71
2022/09/08 04:34:58;;;;;;;16.75;12.52;;;16.70;99.90;;;;;;5115314;28;20066;-71
2022/09/08 04:37:26;;;;;;;17.45;11.90;;;16.70;99.90;;;;;;5115625;28;20511;-71
2022/09/08 04:39:54;;;;;;;17.50;11.15;;;16.60;99.90;;;;;;5115559;28;20127;-71
2022/09/08 04:42:23;;;;;;;16.58;11.30;;;16.60;99.90;;;;;;5115271;28;20122;-71
2022/09/08 04:44:50;;;;;;;15.70;11.32;;;16.60;99.90;;;;;;5097129;28;20048;-71
2022/09/08 04:47:18;;;;;;;13.48;11.77;;;16.60;99.90;;;;;;5115146;28;20071;-71
2022/09/08 04:49:45;;;;;;;16.02;11.68;;;16.60;99.90;;;;;;5115171;28;20067;-71
2022/09/08 04:52:12;;;;;;;15.27;11.07;;;16.70;99.90;;;;;;5115095;28;20510;-71
2022/09/08 04:54:42;;;;;;;16.13;12.10;;;16.70;99.90;;;;;;5114814;28;20410;-69
2022/09/08 04:57:10;;;;;;;18.73;11.32;;;16.70;99.90;;;;;;5111516;28;20122;-70
2022/09/08 04:59:37;;;;;;;24.83;12.30;;;16.80;99.90;;;;;;5096657;28;20498;-69
2022/09/08 05:02:04;;;;;;;33.03;12.20;;;16.80;99.90;;;;;;5115238;28;20097;-69
2022/09/08 05:04:31;;;;;;;19.13;12.07;;;16.90;99.90;;;;;;5108954;28;20044;-70
2022/09/08 05:06:59;;;;;;;14.05;10.90;;;17.00;99.90;;;;;;5114806;28;20070;-70
2022/09/08 05:09:26;;;;;;;12.90;10.40;;;17.10;99.90;;;;;;5114441;28;20096;-70
2022/09/08 05:11:55;;;;;;;17.75;11.23;;;17.20;99.90;;;;;;5096657;28;20075;-69
2022/09/08 05:14:22;;;;;;;19.17;10.02;;;17.30;99.90;;;;;;5096076;28;20138;-70
2022/09/08 05:16:49;;;;;;;14.25;9.90;;;17.40;99.90;;;;;;5110750;28;20047;-70
2022/09/08 05:19:16;;;;;;;14.88;9.20;;;17.50;99.90;;;;;;5112467;28;20040;-71
2022/09/08 05:21:44;;;;;;;15.13;10.27;;;17.60;99.90;;;;;;5114502;28;20056;-71
2022/09/08 05:24:11;;;;;;;15.63;12.15;;;17.60;99.90;;;;;;5106772;28;20069;-72
2022/09/08 05:26:38;;;;;;;12.65;10.65;;;17.70;99.90;;;;;;5096135;28;20082;-72
2022/09/08 05:29:07;;;;;;;20.58;8.68;;;17.80;99.90;;;;;;5114380;28;20123;-72
2022/09/08 05:31:35;;;;;;;10.82;7.25;;;17.90;99.90;;;;;;5114694;28;20432;-70
2022/09/08 05:34:02;;;;;;;9.40;6.10;;;18.00;99.90;;;;;;5114224;28;20494;-72
2022/09/08 05:36:31;;;;;;;14.77;7.07;;;18.10;99.90;;;;;;5114318;28;20109;-72
2022/09/08 05:38:58;;;;;;;11.93;6.45;;;18.20;99.90;;;;;;5114387;28;20070;-70
2022/09/08 05:41:26;;;;;;;10.90;6.45;;;18.40;99.90;;;;;;5095643;28;20460;-70
2022/09/08 05:43:54;;;;;;;11.75;9.40;;;18.50;99.90;;;;;;5113902;28;20156;-70
2022/09/08 05:46:25;;;;;;;11.70;7.95;;;18.60;99.90;;;;;;5108692;28;20164;-69
2022/09/08 05:48:53;;;;;;;9.93;7.28;;;18.80;99.90;;;;;;5113827;28;20046;-69
2022/09/08 05:51:21;;;;;;;10.30;7.18;;;19.10;99.90;;;;;;5113874;28;20032;-69
2022/09/08 05:53:49;;;;;;;12.07;7.88;;;19.30;99.90;;;;;;5113643;28;20063;-69
2022/09/08 05:56:18;;;;;;;16.55;7.70;;;19.30;99.90;;;;;;5114469;28;20040;-69
2022/09/08 05:58:51;;;;;;;18.95;8.63;;;19.40;99.90;;;;;;5114111;28;20399;-69
2022/09/08 06:01:18;;;;;;;17.10;8.40;;;19.70;99.90;;;;;;5113799;28;20059;-69
2022/09/08 06:03:51;;;;;;;13.13;8.55;;;19.90;99.90;;;;;;5113393;28;20067;-70
2022/09/08 06:06:19;;;;;;;16.92;9.10;;;20.10;99.90;;;;;;5096440;28;20119;-69
2022/09/08 06:08:46;;;;;;;28.33;9.65;;;20.40;99.90;;;;;;5107108;28;20075;-70
2022/09/08 06:11:14;;;;;;;13.90;7.43;;;20.50;99.90;;;;;;5110242;28;20035;-69
2022/09/08 06:13:41;;;;;;;14.57;8.43;;;20.80;99.90;;;;;;5112356;28;20067;-69
2022/09/08 06:16:11;;;;;;;13.52;6.40;;;20.80;99.90;;;;;;5106961;28;20047;-70
2022/09/08 06:18:41;;;;;;;14.75;6.85;;;21.10;99.90;;;;;;5104175;28;20039;-70
2022/09/08 06:21:11;;;;;;;15.35;6.25;;;21.20;99.90;;;;;;5107414;28;20040;-71
2022/09/08 06:23:39;;;;;;;14.60;5.88;;;21.20;99.90;;;;;;5108266;28;20040;-69
2022/09/08 06:26:37;;;;;;;17.30;8.68;;;21.40;99.90;;;;;;5104414;28;20113;-69
2022/09/08 06:29:10;;;;;;;18.90;7.30;;;21.60;99.90;;;;;;5091433;28;20087;-70
2022/09/08 06:31:42;;;;;;;18.83;7.88;;;21.90;99.90;;;;;;5106922;28;20040;-69
2022/09/08 06:34:16;;;;;;;15.70;9.98;;;22.10;99.90;;;;;;5093860;28;20077;-69
2022/09/08 06:36:50;;;;;;;14.35;6.18;;;22.10;99.90;;;;;;5093070;28;20044;-69
2022/09/08 06:39:23;;;;;;;14.80;6.28;;;22.20;99.90;;;;;;5093084;28;20048;-70
2022/09/08 06:41:55;;;;;;;12.48;6.13;;;22.40;99.90;;;;;;5075002;28;20044;-70
2022/09/08 06:44:26;;;;;;;20.40;6.32;;;22.50;99.90;;;;;;5074829;28;20083;-69
2022/09/08 06:46:55;;;;;;;12.45;6.90;;;22.70;99.90;;;;;;5092909;28;20446;-70
2022/09/08 06:49:27;;;;;;;17.85;6.85;;;22.90;99.90;;;;;;5093025;28;20047;-71
2022/09/08 06:52:13;;;;;;;13.50;6.40;;;23.20;99.90;;;;;;5074688;28;20053;-70
2022/09/08 06:54:47;;;;;;;12.60;6.25;;;23.30;99.90;;;;;;5092441;28;20128;-70
2022/09/08 06:57:32;;;;;;;22.67;9.93;;;23.40;99.90;;;;;;5098904;28;20066;-70
2022/09/08 07:00:09;;;;;;;16.55;7.20;;;23.60;99.90;;;;;;5106028;28;20063;-70
2022/09/08 07:02:59;;;;;;;16.05;6.63;;;23.60;99.90;;;;;;5105490;28;20058;-70
2022/09/08 07:05:54;;;;;;;10.90;6.15;;;23.80;99.90;;;;;;5096348;28;20459;-70
2022/09/08 07:08:35;;;;;;;19.85;12.50;;;24.00;99.90;;;;;;5103291;28;20199;-70
2022/09/08 07:11:09;;;;;;;13.82;8.05;;;24.20;99.90;;;;;;5096570;28;20035;-69
2022/09/08 07:13:44;;;;;;;15.57;9.55;;;24.30;99.90;;;;;;5095875;28;20122;-69
2022/09/08 07:16:21;;;;;;;13.13;7.33;;;24.30;99.90;;;;;;5096164;28;20119;-69
2022/09/08 07:18:52;;;;;;;13.23;6.65;;;24.30;99.90;;;;;;5096652;28;20078;-69
2022/09/08 07:21:28;;;;;;;12.75;6.45;;;24.40;99.90;;;;;;5095999;28;20571;-69
2022/09/08 07:23:58;;;;;;;;;;;24.50;99.90;;;;;;5096466;28;20048;-68
2022/09/08 07:26:31;;;;;;;11.75;5.70;;;24.30;99.90;;;;;;5096469;28;20015;-69
2022/09/08 07:29:06;;;;;;;16.15;6.07;;;24.10;99.90;;;;;;5096512;28;20075;-69
2022/09/08 07:31:39;;;;;;;12.63;5.95;;;24.20;99.90;;;;;;5096263;28;20067;-69
2022/09/08 07:34:15;;;;;;;14.30;6.50;;;24.20;99.90;;;;;;5096313;28;20457;-70
2022/09/08 07:36:50;;;;;;;18.23;7.15;;;24.30;99.90;;;;;;5078079;28;20040;-70
2022/09/08 07:39:22;;;;;;;18.05;6.28;;;24.40;99.90;;;;;;5096104;28;20150;-70
2022/09/08 07:41:51;;;;;;;14.52;6.32;;;24.50;99.90;;;;;;5095955;28;20583;-70
2022/09/08 07:44:20;;;;;;;17.52;6.47;;;24.80;99.90;;;;;;5095691;28;20491;-70
2022/09/08 07:47:16;;;;;;;14.43;6.20;;;25.10;99.90;;;;;;5095884;28;20068;-70
2022/09/08 07:49:50;;;;;;;18.60;9.15;;;25.40;1.00;;;;;;5078059;28;20048;-69
2022/09/08 07:52:28;;;;;;;17.07;9.57;;;25.50;1.00;;;;;;5096204;28;20502;-70
2022/09/08 07:55:07;;;;;;;15.75;9.43;;;25.60;1.00;;;;;;5095819;28;20440;-70
2022/09/08 07:57:44;;;;;;;13.60;6.22;;;25.90;1.00;;;;;;5095954;28;20040;-69
2022/09/08 08:00:16;;;;;;;15.50;7.22;;;25.90;99.90;;;;;;5095645;28;20507;-70
2022/09/08 08:03:10;;;;;;;13.15;6.40;;;26.00;1.00;;;;;;5095465;28;20089;-71
2022/09/08 08:05:45;;;;;;;15.15;7.78;;;25.90;1.00;;;;;;5091926;28;20127;-69
2022/09/08 08:08:25;;;;;;;18.58;7.05;;;25.70;1.00;;;;;;5094278;28;20047;-70
2022/09/08 08:11:00;;;;;;;13.68;6.35;;;25.90;99.90;;;;;;5095215;28;20411;-70
2022/09/08 08:13:41;;;;;;;11.30;5.55;;;26.20;79.90;;;;;;5095122;28;20066;-70
2022/09/08 08:16:12;;;;;;;12.45;5.85;;;26.30;1.00;;;;;;5095658;28;20040;-69
2022/09/08 08:18:49;;;;;;;16.05;5.20;;;26.40;1.00;;;;;;5095449;28;20119;-70
2022/09/08 08:21:23;;;;;;;12.25;6.25;;;26.60;1.00;;;;;;5095074;28;20410;-70
2022/09/08 08:24:06;;;;;;;14.73;6.40;;;26.80;1.00;;;;;;5095190;28;20040;-70
2022/09/08 08:26:45;;;;;;;10.57;5.57;;;26.80;1.00;;;;;;5077591;28;20499;-70
2022/09/08 08:29:44;;;;;;;12.60;5.43;;;26.80;99.90;;;;;;5095341;28;20457;-69
2022/09/08 08:32:15;;;;;;;10.57;4.45;;;26.80;99.90;;;;;;5095424;28;20063;-71
2022/09/08 08:34:48;;;;;;;14.02;5.40;;;26.70;1.00;;;;;;5095087;28;20102;-70
2022/09/08 08:37:21;;;;;;;10.20;5.38;;;26.80;1.00;;;;;;5088771;28;20044;-71
2022/09/08 08:39:52;;;;;;;8.68;5.13;;;26.90;1.00;;;;;;5114287;28;20399;-71
2022/09/08 08:42:41;;;;;;;12.52;4.45;;;27.10;1.00;;;;;;5115782;28;20040;-71
2022/09/08 08:45:21;;;;;;;13.55;5.72;;;27.20;1.00;;;;;;5115504;28;20127;-70
2022/09/08 08:48:05;;;;;;;10.82;5.88;;;27.00;99.90;;;;;;5115768;28;20151;-69
2022/09/08 08:51:06;;;;;;;8.70;4.43;;;27.20;99.90;;;;;;5109460;28;20099;-70
2022/09/08 08:54:05;;;;;;;10.43;4.95;;;27.10;1.00;;;;;;5102347;28;20044;-71
2022/09/08 08:56:39;;;;;;;11.55;5.10;;;27.20;1.00;;;;;;5100495;28;20058;-71
2022/09/08 08:59:38;;;;;;;10.13;4.03;;;27.20;1.00;;;;;;5115298;28;20464;-70
2022/09/08 09:02:23;;;;;;;10.75;4.55;;;27.20;1.00;;;;;;5087169;28;20139;-71
2022/09/08 09:05:21;;;;;;;11.98;4.82;;;27.30;1.00;;;;;;5090210;28;20044;-71
2022/09/08 09:08:20;;;;;;;12.50;5.40;;;27.40;1.00;;;;;;5102602;28;20051;-70
2022/09/08 09:11:01;;;;;;;21.73;5.15;;;27.60;1.00;;;;;;5095095;28;20138;-70
2022/09/08 09:14:00;;;;;;;14.27;4.72;;;27.60;1.00;;;;;;5096377;28;20066;-71
2022/09/08 09:16:45;;;;;;;10.57;4.63;;;27.80;1.00;;;;;;5082879;28;20115;-70
2022/09/08 09:19:28;;;;;;;10.23;4.50;;;27.70;1.00;;;;;;5097023;28;20075;-70
2022/09/08 09:22:06;;;;;;;9.93;4.60;;;27.80;99.90;;;;;;5116305;28;20042;-71
2022/09/08 09:24:40;;;;;;;15.43;7.28;;;27.80;99.90;;;;;;5115753;28;20498;-70
2022/09/08 09:27:18;;;;;;;13.38;5.28;;;27.90;1.00;;;;;;5115519;28;20462;-70
2022/09/08 09:29:46;;;;;;;13.63;4.93;;;28.00;99.90;;;;;;5114907;28;20046;-70
2022/09/08 09:32:44;;;;;;;10.57;5.20;;;28.00;99.90;;;;;;5114390;28;20104;-70
2022/09/08 09:35:39;;;;;;;10.40;4.45;;;28.10;18.50;;;;;;5111882;28;20063;-70
2022/09/08 09:38:32;;;;;;;12.17;5.77;;;28.20;99.90;;;;;;5110641;28;20082;-71
2022/09/08 09:41:30;;;;;;;8.50;5.93;;;28.30;99.90;;;;;;5114336;28;20367;-69
2022/09/08 09:44:13;;;;;;;11.98;4.85;;;28.40;1.00;;;;;;5109378;28;20070;-70
2022/09/08 09:47:05;;;;;;;11.75;5.00;;;28.40;1.00;;;;;;5113843;28;20503;-71
2022/09/08 09:50:11;;;;;;;17.20;5.72;;;28.50;1.00;;;;;;5111378;28;20071;-71
2022/09/08 09:52:47;;;;;;;12.00;5.50;;;28.50;1.00;;;;;;5065853;28;20105;-71
2022/09/08 09:55:35;;;;;;;12.90;4.70;;;28.60;1.00;;;;;;5114087;28;20276;-73
2022/09/08 09:58:30;;;;;;;10.55;4.90;;;28.70;1.00;;;;;;5103038;28;20040;-73
2022/09/08 10:01:22;;;;;;;9.52;4.30;;;28.70;1.00;;;;;;5098862;28;20051;-73
2022/09/08 10:04:16;;;;;;;16.70;5.28;;;28.70;1.00;;;;;;5093251;28;20091;-72
2022/09/08 10:07:03;;;;;;;12.32;5.22;;;28.80;1.00;;;;;;5093472;28;20124;-73
2022/09/08 10:09:53;;;;;;;12.32;4.35;;;28.80;1.00;;;;;;5093284;28;20126;-72
2022/09/08 10:12:52;;;;;;;11.93;4.40;;;28.90;1.00;;;;;;5093124;28;20111;-72
2022/09/08 10:16:05;;;;;;;11.65;5.35;;;28.90;1.00;;;;;;5093063;28;20441;-73
2022/09/08 10:19:20;;;;;;;7.32;4.10;;;28.80;1.00;;;;;;5020642;28;20136;-73
2022/09/08 10:22:19;;;;;;;36.38;22.45;;;28.90;1.00;;;;;;5106808;28;20127;-73
2022/09/08 10:25:28;;;;;;;13.32;5.55;;;29.00;1.00;;;;;;5113145;28;20052;-73
2022/09/08 10:28:37;;;;;;;18.05;11.60;;;29.10;1.00;;;;;;5100138;28;20128;-73
2022/09/08 10:32:01;;;;;;;10.70;5.43;;;29.20;1.00;;;;;;5048091;28;20105;-73
2022/09/08 10:35:04;;;;;;;11.10;5.80;;;29.40;1.00;;;;;;5010711;28;20121;-73
2022/09/08 10:38:09;;;;;;;12.20;5.22;;;29.40;1.00;;;;;;5013313;28;20398;-73
2022/09/08 10:40:45;;;;;;;11.57;7.15;;;29.50;1.00;;;;;;5046295;28;20139;-73
2022/09/08 10:43:47;;;;;;;14.07;6.88;;;29.50;1.00;;;;;;5074119;28;20489;-72
2022/09/08 10:46:42;;;;;;;10.82;6.05;;;29.50;1.00;;;;;;5049109;28;20138;-73
2022/09/08 10:49:36;;;;;;;9.57;5.47;;;29.60;1.00;;;;;;5108051;28;20035;-73
2022/09/08 10:52:19;;;;;;;11.73;6.32;;;29.80;1.00;;;;;;5113256;28;20108;-73
2022/09/08 10:55:27;;;;;;;11.45;4.22;;;30.00;5.80;;;;;;5112371;28;20075;-74
2022/09/08 10:58:16;;;;;;;13.90;6.72;;;30.30;7.30;;;;;;5112821;28;20118;-72
2022/09/08 11:00:52;;;;;;;9.40;5.45;;;30.50;8.90;;;;;;5112401;28;20067;-73
2022/09/08 11:03:31;;;;;;;;;;;30.60;12.10;;;;;;5094856;28;20435;-73
2022/09/08 11:06:04;;;;;;;15.55;9.50;;;30.50;15.30;;;;;;5108859;28;19978;-72
2022/09/08 11:09:05;;;;;;;15.38;8.32;;;30.40;26.00;;;;;;5111846;28;20122;-72
2022/09/08 11:11:59;;;;;;;11.10;5.53;;;30.40;22.30;;;;;;5109298;28;20051;-73
2022/09/08 11:15:06;;;;;;;11.50;5.50;;;30.50;34.30;;;;;;5111920;28;20100;-73
2022/09/08 11:17:43;;;;;;;;;;;30.40;24.20;;;;;;5074660;28;20491;-72
2022/09/08 11:20:14;;;;;;;12.63;7.03;;;30.30;21.40;;;;;;5099280;28;19994;-73
2022/09/08 11:23:13;;;;;;;11.63;5.45;;;30.20;1.00;;;;;;5111457;28;20118;-73
2022/09/08 11:25:58;;;;;;;10.38;4.43;;;30.20;5.00;;;;;;5101147;28;20122;-73
2022/09/08 11:28:45;;;;;;;10.40;4.30;;;30.20;1.00;;;;;;5094362;28;20115;-73
2022/09/08 11:31:25;;;;;;;14.23;5.05;;;30.10;1.00;;;;;;5112774;28;20051;-72
2022/09/08 11:34:28;;;;;;;12.00;5.45;;;30.20;5.20;;;;;;5112281;28;20071;-74
2022/09/08 11:37:35;;;;;;;11.30;4.60;;;30.20;8.50;;;;;;5066136;28;20428;-74
2022/09/08 11:40:18;;;;;;;;;;;30.20;3.00;;;;;;5092613;28;20040;-74
2022/09/08 11:43:23;;;;;;;16.15;7.60;;;30.40;3.10;;;;;;5093989;28;20360;-74
2022/09/08 11:46:02;;;;;;;11.13;6.65;;;30.50;17.10;;;;;;5066534;28;20088;-74
2022/09/08 11:48:49;;;;;;;12.20;6.85;;;30.50;12.20;;;;;;5104666;28;20075;-74
2022/09/08 11:51:39;;;;;;;14.48;5.95;;;30.50;6.10;;;;;;5108683;28;20040;-74
2022/09/08 11:54:27;;;;;;;14.35;7.47;;;30.60;8.40;;;;;;5093410;28;20048;-75
2022/09/08 11:57:26;;;;;;;15.35;7.45;;;30.60;8.80;;;;;;5097992;28;20093;-74
2022/09/08 12:00:19;;;;;;;8.13;4.07;;;30.60;11.60;;;;;;5115382;28;20059;-74
2022/09/08 12:03:18;;;;;;;13.10;5.85;;;30.60;13.20;;;;;;5103237;28;20150;-73
2022/09/08 12:06:01;;;;;;;14.57;5.85;;;30.70;11.50;;;;;;5096264;28;20499;-74
2022/09/08 12:08:51;;;;;;;12.73;7.07;;;30.70;15.10;;;;;;5096074;28;20545;-75
2022/09/08 12:11:53;;;;;;;12.70;6.32;;;30.70;14.30;;;;;;5095549;28;20097;-75
2022/09/08 12:14:29;;;;;;;8.68;5.57;;;30.60;19.70;;;;;;5094869;28;20036;-75
2022/09/08 12:17:05;;;;;;;10.73;5.97;;;30.80;14.80;;;;;;5077638;28;20060;-74
2022/09/08 12:19:45;;;;;;;10.35;5.18;;;30.90;16.60;;;;;;5108529;28;20475;-75
2022/09/08 12:22:39;;;;;;;11.93;5.00;;;30.90;21.40;;;;;;5114190;28;20100;-73
2022/09/08 12:25:26;;;;;;;11.32;6.40;;;31.00;20.30;;;;;;5113873;28;20139;-74
2022/09/08 12:28:10;;;;;;;12.60;5.68;;;31.00;22.90;;;;;;5112260;28;20439;-78
2022/09/08 12:30:54;;;;;;;10.63;6.35;;;31.10;22.90;;;;;;5108186;28;20039;-75
2022/09/08 12:33:46;;;;;;;13.13;7.50;;;31.10;23.00;;;;;;5113959;28;20063;-76
2022/09/08 12:36:20;;;;;;;13.23;7.25;;;31.10;21.40;;;;;;5095571;28;20048;-76
2022/09/08 12:39:19;;;;;;;12.02;5.00;;;31.10;23.40;;;;;;5095898;28;20075;-76
2022/09/08 12:42:07;;;;;;;12.65;5.35;;;31.00;22.20;;;;;;5094865;28;20076;-76
2022/09/08 12:44:48;;;;;;;11.50;5.18;;;31.00;19.30;;;;;;5099063;28;20056;-77
2022/09/08 12:47:30;;;;;;;12.45;5.80;;;30.80;21.70;;;;;;5098243;28;20109;-75
2022/09/08 12:50:17;;;;;;;10.82;6.68;;;30.90;26.40;;;;;;5110813;28;20097;-75
2022/09/08 12:53:07;;;;;;;12.80;5.45;;;31.00;26.10;;;;;;5084008;28;20048;-76
2022/09/08 12:55:40;;;;;;;12.48;4.97;;;31.00;22.60;;;;;;5097697;28;20071;-76
2022/09/08 12:58:14;;;;;;;11.68;5.63;;;31.00;25.80;;;;;;5098591;28;20119;-75
2022/09/08 13:00:51;;;;;;;11.18;6.78;;;31.00;18.40;;;;;;5112611;28;20067;-76
2022/09/08 13:03:31;;;;;;;11.43;6.22;;;31.00;26.90;;;;;;5114910;28;20057;-75
2022/09/08 13:06:23;;;;;;;13.00;8.00;;;31.00;22.20;;;;;;5098996;28;20074;-75
2022/09/08 13:08:59;;;;;;;16.35;9.85;;;31.00;30.70;;;;;;5099308;28;20050;-75
2022/09/08 13:11:51;;;;;;;17.17;9.40;;;30.90;29.80;;;;;;5092822;28;20048;-75
2022/09/08 13:14:38;;;;;;;14.80;8.30;;;31.00;25.50;;;;;;5110608;28;20119;-75
2022/09/08 13:17:13;;;;;;;14.73;7.90;;;31.10;27.70;;;;;;5108260;28;20203;-73
2022/09/08 13:19:56;;;;;;;13.90;7.25;;;30.90;30.60;;;;;;5110407;28;20042;-72
2022/09/08 13:22:37;;;;;;;18.77;11.55;;;30.90;28.30;;;;;;5113928;28;20480;-73
2022/09/08 13:25:14;;;;;;;13.25;5.95;;;30.80;27.70;;;;;;5114572;28;20043;-70
2022/09/08 13:28:06;;;;;;;10.93;5.88;;;31.00;26.20;;;;;;5099807;28;20044;-70
2022/09/08 13:30:45;;;;;;;132.35;97.97;;;31.00;30.70;;;;;;5111142;28;20547;-71
2022/09/08 13:33:26;;;;;;;908.80;746.33;;;31.10;26.30;;;;;;5105169;28;20107;-73